Time;durP1;ratioP1;P1;durP2;ratioP2;P2;SDS_P1;SDS_P2;PMS_P1;PMS_P2;Temp;Humidity;BMP_temperature;BMP_pressure;BME280_temperature;BME280_humidity;BME280_pressure;Samples;Min_cycle;Max_cycle;Signal;HPM_P1;HPM_P2
2023/02/10 00:01:36;;;;;;;19.40;6.93;;;;;;;1.80;75.05;102660.63;5014011;28;20527;-71
2023/02/10 00:04:03;;;;;;;17.10;7.57;;;;;;;1.77;74.46;102661.88;5014224;28;21035;-70
2023/02/10 00:06:30;;;;;;;22.30;7.63;;;;;;;1.73;75.23;102659.78;5014444;28;20823;-70
2023/02/10 00:08:58;;;;;;;20.57;7.50;;;;;;;1.68;75.27;102662.16;5014709;28;20458;-70
2023/02/10 00:14:08;;;;;;;20.47;8.43;;;;;;;1.64;74.78;102651.06;5012782;28;20492;-70
2023/02/10 00:16:34;;;;;;;19.47;7.77;;;;;;;1.63;74.89;102654.72;5014209;28;21004;-70
2023/02/10 00:19:01;;;;;;;18.60;7.30;;;;;;;1.60;75.26;102652.44;5014392;28;20450;-70
2023/02/10 00:21:28;;;;;;;15.43;7.40;;;;;;;1.60;75.18;102655.13;5014754;28;20877;-70
2023/02/10 00:23:54;;;;;;;18.83;6.80;;;;;;;1.61;75.20;102658.63;5013402;28;20483;-70
2023/02/10 00:26:21;;;;;;;21.03;7.43;;;;;;;1.64;75.12;102656.41;5014265;28;20540;-70
2023/02/10 00:28:47;;;;;;;22.90;7.10;;;;;;;1.64;75.19;102658.22;5014111;28;20479;-70
2023/02/10 00:31:18;;;;;;;24.23;8.67;;;;;;;1.67;75.02;102649.81;5013848;28;20444;-69
2023/02/10 00:33:45;;;;;;;20.70;7.47;;;;;;;1.68;75.08;102662.16;5014092;28;20460;-70
2023/02/10 00:36:13;;;;;;;19.30;7.40;;;;;;;1.62;75.40;102657.59;5023448;28;21028;-69
2023/02/10 00:38:41;;;;;;;17.17;6.77;;;;;;;1.60;75.73;102670.31;5020788;28;20448;-70
2023/02/10 00:41:10;;;;;;;18.83;6.63;;;;;;;1.64;75.52;102676.91;5013448;28;20973;-70
2023/02/10 00:43:39;;;;;;;17.87;6.27;;;;;;;1.66;76.50;102674.88;5013632;28;20515;-70
2023/02/10 00:46:05;;;;;;;19.17;8.07;;;;;;;1.72;76.23;102684.81;5013183;28;20448;-70
2023/02/10 00:48:34;;;;;;;19.37;7.63;;;;;;;1.72;76.63;102682.94;5013995;28;20454;-70
2023/02/10 00:51:00;;;;;;;17.57;7.70;;;;;;;1.77;76.34;102682.38;5014122;28;20531;-70
2023/02/10 00:53:27;;;;;;;17.80;6.73;;;;;;;1.82;77.04;102688.00;5013712;28;20543;-69
2023/02/10 00:55:54;;;;;;;18.10;7.50;;;;;;;1.81;76.08;102683.66;5016264;28;20454;-70
2023/02/10 00:58:20;;;;;;;14.60;7.10;;;;;;;1.82;76.44;102689.84;5033672;28;20522;-70
2023/02/10 01:00:48;;;;;;;16.20;7.03;;;;;;;1.75;76.87;102690.59;5023711;28;20448;-70
2023/02/10 01:03:14;;;;;;;19.73;6.97;;;;;;;1.73;76.59;102691.81;5013385;28;20459;-70
2023/02/10 01:05:44;;;;;;;24.00;8.17;;;;;;;1.63;77.12;102691.28;5013796;28;20436;-70
2023/02/10 01:08:11;;;;;;;16.07;7.53;;;;;;;1.62;77.01;102700.31;5013758;28;20494;-70
2023/02/10 01:10:37;;;;;;;18.73;6.53;;;;;;;1.56;77.09;102693.06;5013401;28;20969;-70
2023/02/10 01:13:05;;;;;;;20.20;7.40;;;;;;;1.48;77.47;102688.66;5013333;28;20496;-69
2023/02/10 01:15:32;;;;;;;16.10;6.70;;;;;;;1.42;77.62;102695.59;5013349;28;20436;-70
2023/02/10 01:17:59;;;;;;;23.10;8.20;;;;;;;1.30;77.61;102693.59;5012725;28;20476;-70
2023/02/10 01:20:26;;;;;;;22.93;8.20;;;;;;;1.21;77.92;102688.34;5013541;28;20528;-70
2023/02/10 01:22:54;;;;;;;16.50;7.03;;;;;;;1.19;78.32;102690.38;5012591;28;20466;-70
2023/02/10 01:25:21;;;;;;;15.13;7.00;;;;;;;1.16;79.30;102688.09;5012984;28;20510;-69
2023/02/10 01:27:47;;;;;;;15.47;7.00;;;;;;;1.07;79.84;102689.22;5012783;28;20456;-68
2023/02/10 01:30:15;;;;;;;26.77;9.93;;;;;;;1.07;80.05;102686.53;5013004;28;20471;-69
2023/02/10 01:32:41;;;;;;;17.93;7.77;;;;;;;1.06;80.80;102690.19;5012804;28;20472;-68
2023/02/10 01:35:08;;;;;;;21.13;8.43;;;;;;;0.95;80.40;102696.84;5013299;28;20444;-68
2023/02/10 01:37:37;;;;;;;16.73;7.63;;;;;;;0.87;79.92;102690.78;5012776;28;20472;-69
2023/02/10 01:40:07;;;;;;;28.83;8.80;;;;;;;0.84;80.04;102694.66;4994020;28;20448;-68
2023/02/10 01:42:33;;;;;;;15.97;8.17;;;;;;;0.77;81.13;102699.06;5002585;28;20488;-69
2023/02/10 01:45:23;;;;;;;16.90;7.63;;;;;;;0.67;80.63;102686.00;5012663;28;20488;-69
2023/02/10 01:47:52;;;;;;;20.47;8.60;;;;;;;0.64;81.83;102689.03;5012676;28;20439;-69
2023/02/10 01:50:23;;;;;;;17.90;7.70;;;;;;;0.65;82.62;102680.00;5012782;28;20444;-68
2023/02/10 01:52:50;;;;;;;20.17;8.03;;;;;;;0.63;83.07;102674.03;5012859;28;20562;-68
2023/02/10 01:55:21;;;;;;;26.93;8.47;;;;;;;0.62;83.35;102669.72;5012959;28;20476;-68
2023/02/10 01:57:53;;;;;;;19.07;7.43;;;;;;;0.54;84.03;102664.47;5012550;28;20530;-67
2023/02/10 02:00:21;;;;;;;23.17;8.30;;;;;;;0.57;84.71;102664.09;5012837;28;20441;-69
2023/02/10 02:02:49;;;;;;;20.07;8.50;;;;;;;0.59;85.09;102664.75;5012935;28;20555;-69
2023/02/10 02:05:31;;;;;;;21.67;8.50;;;;;;;0.59;86.06;102662.09;4993500;28;20495;-69
2023/02/10 02:08:02;;;;;;;21.57;7.80;;;;;;;0.59;85.79;102667.41;5011520;28;20440;-69
2023/02/10 02:10:42;;;;;;;19.47;8.20;;;;;;;0.59;86.02;102667.41;5012380;28;20444;-70
2023/02/10 02:13:16;;;;;;;16.90;7.20;;;;;;;0.56;86.74;102677.59;5012577;28;20475;-69
2023/02/10 02:15:50;;;;;;;17.47;7.60;;;;;;;0.56;86.28;102675.78;5012771;28;20446;-69
2023/02/10 02:18:27;;;;;;;18.77;8.03;;;;;;;0.58;86.27;102689.75;5013071;28;20483;-69
2023/02/10 02:21:31;;;;;;;24.47;9.27;;;;;;;0.58;86.39;102681.75;5012323;28;20443;-69
2023/02/10 02:24:21;;;;;;;20.70;7.43;;;;;;;0.45;87.11;102687.72;5012794;28;20470;-69
2023/02/10 02:27:02;;;;;;;19.37;8.30;;;;;;;0.45;87.50;102692.22;4959788;28;20575;-69
2023/02/10 02:29:54;;;;;;;15.60;7.23;;;;;;;0.50;86.96;102693.34;5012458;28;20787;-69
2023/02/10 02:32:23;;;;;;;18.63;7.97;;;;;;;0.49;86.98;102683.69;5011755;28;20550;-69
2023/02/10 02:34:54;;;;;;;23.33;9.90;;;;;;;0.49;87.85;102690.84;5016218;28;20530;-69
2023/02/10 02:37:27;;;;;;;17.10;8.47;;;;;;;0.47;87.33;102692.84;5016594;28;20437;-69
2023/02/10 02:39:55;;;;;;;27.60;9.03;;;;;;;0.48;87.44;102694.50;5016241;28;20792;-68
2023/02/10 02:42:24;;;;;;;22.37;9.00;;;;;;;0.47;87.30;102699.00;5016013;28;20455;-69
2023/02/10 02:44:54;;;;;;;21.50;8.83;;;;;;;0.49;87.01;102694.34;5015947;28;20487;-69
2023/02/10 02:47:39;;;;;;;20.37;8.17;;;;;;;0.46;86.80;102694.69;5016140;28;20440;-69
2023/02/10 02:50:18;;;;;;;23.20;8.43;;;;;;;0.44;87.20;102699.41;5016258;28;20450;-70
2023/02/10 02:52:59;;;;;;;20.23;8.27;;;;;;;0.43;87.36;102691.56;5015326;28;20543;-70
2023/02/10 02:55:37;;;;;;;17.80;8.47;;;;;;;0.40;87.83;102684.78;5016006;28;20519;-69
2023/02/10 02:58:12;;;;;;;28.33;9.10;;;;;;;0.41;87.78;102690.94;5015945;28;20444;-70
2023/02/10 03:00:41;;;;;;;29.50;9.50;;;;;;;0.43;87.67;102694.22;5015945;28;20479;-69
2023/02/10 03:03:09;;;;;;;29.40;9.50;;;;;;;0.44;87.62;102690.53;5015284;28;20507;-70
2023/02/10 03:05:36;;;;;;;18.80;8.70;;;;;;;0.42;87.86;102690.75;5015909;28;20488;-68
2023/02/10 03:08:03;;;;;;;25.50;10.17;;;;;;;0.40;87.39;102699.91;5015700;28;20448;-68
2023/02/10 03:10:29;;;;;;;26.97;8.97;;;;;;;0.46;87.75;102701.88;5015635;28;20487;-69
2023/02/10 03:12:56;;;;;;;21.03;8.97;;;;;;;0.48;87.91;102703.31;5015285;28;20464;-69
2023/02/10 03:15:22;;;;;;;25.47;10.97;;;;;;;0.52;88.52;102700.31;5015410;28;20535;-69
2023/02/10 03:17:49;;;;;;;22.87;9.70;;;;;;;0.55;87.96;102706.13;5015556;28;20939;-70
2023/02/10 03:20:17;;;;;;;21.17;9.70;;;;;;;0.66;88.30;102702.16;5015724;28;20539;-70
2023/02/10 03:22:44;;;;;;;23.70;9.30;;;;;;;0.75;87.94;102699.25;5015087;28;20921;-69
2023/02/10 03:25:11;;;;;;;24.00;11.53;;;;;;;0.81;87.99;102699.53;5015149;28;20484;-69
2023/02/10 03:27:38;;;;;;;25.27;11.63;;;;;;;0.81;88.84;102696.84;5015047;28;20487;-69
2023/02/10 03:30:06;;;;;;;30.73;10.43;;;;;;;0.85;88.96;102698.97;5014941;28;20524;-66
2023/02/10 03:32:32;;;;;;;23.97;9.80;;;;;;;0.94;88.93;102708.53;5014777;28;20478;-69
2023/02/10 03:34:59;;;;;;;25.57;10.50;;;;;;;0.99;88.69;102713.31;5014864;28;20483;-69
2023/02/10 03:37:27;;;;;;;30.20;11.97;;;;;;;1.10;88.87;102712.00;5015162;28;20453;-69
2023/02/10 03:39:54;;;;;;;23.63;9.63;;;;;;;1.16;88.56;102727.31;5015287;28;20450;-68
2023/02/10 03:42:20;;;;;;;37.73;12.10;;;;;;;1.21;88.29;102715.03;5014501;28;20459;-69
2023/02/10 03:44:47;;;;;;;26.73;10.00;;;;;;;1.27;88.26;102722.28;5021354;28;20934;-69
2023/02/10 03:47:13;;;;;;;32.43;11.97;;;;;;;1.34;88.20;102714.38;5034663;28;20827;-69
2023/02/10 03:49:40;;;;;;;30.83;11.50;;;;;;;1.32;88.34;102712.91;5021028;28;20444;-69
2023/02/10 03:52:06;;;;;;;30.37;13.03;;;;;;;1.37;88.38;102719.34;5014953;28;20444;-70
2023/02/10 03:54:34;;;;;;;26.20;11.37;;;;;;;1.45;88.49;102721.06;5014914;28;20456;-70
2023/02/10 03:57:01;;;;;;;37.67;13.47;;;;;;;1.44;88.67;102719.44;5015114;28;20462;-70
2023/02/10 03:59:27;;;;;;;33.13;12.07;;;;;;;1.50;88.28;102713.31;5014915;28;20527;-70
2023/02/10 04:01:54;;;;;;;25.50;11.23;;;;;;;1.54;88.32;102705.78;5014879;28;20444;-70
2023/02/10 04:04:21;;;;;;;30.80;12.30;;;;;;;1.59;88.65;102712.19;5014676;28;20831;-70
2023/02/10 04:06:47;;;;;;;32.27;12.20;;;;;;;1.61;88.21;102693.34;5014791;28;20442;-71
2023/02/10 04:09:14;;;;;;;24.87;10.50;;;;;;;1.61;88.29;102699.50;5014738;28;20450;-70
2023/02/10 04:11:42;;;;;;;42.63;13.80;;;;;;;1.57;88.58;102711.56;5014729;28;20823;-70
2023/02/10 04:14:08;;;;;;;29.47;11.80;;;;;;;1.62;88.67;102711.00;5014170;28;20466;-70
2023/02/10 04:16:35;;;;;;;33.10;12.73;;;;;;;1.66;88.42;102697.06;5013800;28;20450;-71
2023/02/10 04:19:01;;;;;;;31.27;14.57;;;;;;;1.66;88.93;102696.25;5014368;28;20459;-70
2023/02/10 04:21:28;;;;;;;30.70;12.13;;;;;;;1.61;89.96;102710.19;5014193;28;20444;-70
2023/02/10 04:23:55;;;;;;;32.33;13.70;;;;;;;1.62;90.29;102709.16;5014366;28;20472;-68
2023/02/10 04:26:22;;;;;;;32.53;12.60;;;;;;;1.65;90.35;102703.44;5013835;28;20480;-70
2023/02/10 04:28:50;;;;;;;30.30;14.20;;;;;;;1.66;90.38;102721.13;5013842;28;20452;-70
2023/02/10 04:31:17;;;;;;;37.83;14.50;;;;;;;1.63;91.14;102724.16;5014072;28;20527;-70
2023/02/10 04:33:44;;;;;;;35.10;13.97;;;;;;;1.74;90.65;102726.34;5013816;28;20479;-69
2023/02/10 04:36:11;;;;;;;26.40;11.80;;;;;;;1.67;91.56;102720.09;5013735;28;20519;-68
2023/02/10 04:38:37;;;;;;;35.43;14.20;;;;;;;1.80;90.95;102730.09;5014015;28;20444;-69
2023/02/10 04:41:04;;;;;;;34.80;13.33;;;;;;;1.84;90.90;102725.22;5013729;28;20482;-69
2023/02/10 04:43:31;;;;;;;43.40;16.23;;;;;;;1.87;90.85;102724.84;5013592;28;20471;-70
2023/02/10 04:45:59;;;;;;;30.60;13.13;;;;;;;1.94;90.84;102729.22;5013093;28;20484;-69
2023/02/10 04:48:26;;;;;;;30.83;14.70;;;;;;;1.95;91.00;102725.56;5013565;28;20835;-70
2023/02/10 04:50:53;;;;;;;34.73;14.47;;;;;;;1.86;91.81;102733.84;5013577;28;20479;-70
2023/02/10 04:53:20;;;;;;;37.27;14.43;;;;;;;1.88;91.71;102732.66;5013613;28;20474;-70
2023/02/10 04:55:47;;;;;;;30.47;13.53;;;;;;;1.94;91.90;102731.06;5012514;28;20436;-70
2023/02/10 04:58:13;;;;;;;34.63;13.13;;;;;;;1.96;91.60;102726.38;5026648;28;20526;-70
2023/02/10 05:00:40;;;;;;;33.27;14.50;;;;;;;1.94;91.92;102723.03;5033191;28;20802;-69
2023/02/10 05:03:08;;;;;;;34.33;13.63;;;;;;;1.91;92.36;102726.94;5013877;28;20470;-69
2023/02/10 05:05:35;;;;;;;38.30;15.60;;;;;;;1.89;92.44;102725.47;5013649;28;20590;-70
2023/02/10 05:08:02;;;;;;;31.27;15.07;;;;;;;1.90;92.41;102729.78;5013329;28;20447;-69
2023/02/10 05:10:28;;;;;;;32.80;13.50;;;;;;;1.91;92.75;102734.13;5013428;28;20458;-70
2023/02/10 05:12:55;;;;;;;27.90;12.57;;;;;;;1.89;92.56;102738.81;5013177;28;20500;-68
2023/02/10 05:15:21;;;;;;;35.07;14.77;;;;;;;1.78;93.31;102748.19;5021099;28;20443;-69
2023/02/10 05:17:48;;;;;;;28.57;15.17;;;;;;;1.73;93.65;102748.75;5033312;28;20439;-70
2023/02/10 05:20:16;;;;;;;34.47;13.63;;;;;;;1.77;93.36;102747.34;5023586;28;20821;-68
2023/02/10 05:22:43;;;;;;;38.30;15.43;;;;;;;1.76;93.21;102751.00;5013523;28;20474;-69
2023/02/10 05:25:09;;;;;;;34.73;13.97;;;;;;;1.72;93.28;102744.41;5055502;23;20498;-67
2023/02/10 05:27:37;;;;;;;34.07;13.87;;;;;;;1.67;93.57;102749.47;5043766;28;20478;-68
2023/02/10 05:30:04;;;;;;;31.47;13.10;;;;;;;1.65;93.89;102745.34;5032972;28;21015;-68
2023/02/10 05:32:31;;;;;;;39.60;15.20;;;;;;;1.58;93.76;102742.59;5034363;28;20523;-69
2023/02/10 05:34:57;;;;;;;33.90;13.70;;;;;;;1.58;94.25;102747.94;5040688;28;20552;-66
2023/02/10 05:37:25;;;;;;;33.20;13.70;;;;;;;1.53;94.27;102745.00;5052997;28;20545;-68
2023/02/10 05:39:52;;;;;;;43.53;15.40;;;;;;;1.47;94.76;102751.94;5052819;28;20452;-66
2023/02/10 05:42:18;;;;;;;33.30;13.87;;;;;;;1.43;95.11;102736.47;5052718;28;20445;-68
2023/02/10 05:44:45;;;;;;;39.43;14.60;;;;;;;1.40;95.14;102745.66;5052290;28;20502;-68
2023/02/10 05:47:11;;;;;;;36.50;14.07;;;;;;;1.38;95.04;102736.22;5052152;28;20990;-68
2023/02/10 05:49:38;;;;;;;37.93;16.60;;;;;;;1.39;95.11;102740.53;5052479;28;20512;-67
2023/02/10 05:52:05;;;;;;;45.37;14.57;;;;;;;1.35;95.52;102753.41;5052513;28;20450;-67
2023/02/10 05:54:33;;;;;;;36.30;15.73;;;;;;;1.34;95.60;102740.25;5051760;28;20493;-67
2023/02/10 05:56:59;;;;;;;32.23;14.43;;;;;;;1.33;95.71;102739.44;5052219;28;20974;-67
2023/02/10 05:59:26;;;;;;;29.73;14.63;;;;;;;1.31;96.00;102735.28;5052299;28;20476;-67
2023/02/10 06:01:52;;;;;;;35.77;14.93;;;;;;;1.24;96.58;102748.56;5052642;28;20438;-66
2023/02/10 06:04:19;;;;;;;32.30;15.23;;;;;;;1.20;96.83;102750.75;5052613;28;20452;-66
2023/02/10 06:06:46;;;;;;;29.50;14.20;;;;;;;1.15;97.18;102750.50;5052343;28;20482;-66
2023/02/10 06:09:12;;;;;;;36.07;14.93;;;;;;;1.19;96.98;102750.94;5055525;28;20448;-68
2023/02/10 06:11:40;;;;;;;38.70;16.60;;;;;;;1.19;96.98;102753.59;5056499;28;20999;-65
2023/02/10 06:14:07;;;;;;;27.40;12.93;;;;;;;1.21;97.07;102755.09;5056246;28;20448;-67
2023/02/10 06:16:33;;;;;;;42.10;15.83;;;;;;;1.19;97.17;102754.41;5056253;28;20434;-67
2023/02/10 06:19:00;;;;;;;33.83;14.50;;;;;;;1.20;96.98;102760.63;5056396;28;20895;-66
2023/02/10 06:21:27;;;;;;;37.67;14.90;;;;;;;1.18;96.65;102768.78;5056401;28;20877;-66
2023/02/10 06:23:53;;;;;;;45.20;15.40;;;;;;;1.15;96.04;102768.31;5056182;28;20478;-64
2023/02/10 06:26:20;;;;;;;29.77;14.67;;;;;;;1.12;96.43;102769.53;5055398;28;20529;-66
2023/02/10 06:28:48;;;;;;;36.10;12.60;;;;;;;1.11;96.45;102769.72;5056085;28;20446;-67
2023/02/10 06:31:15;;;;;;;34.13;15.23;;;;;;;1.11;97.21;102777.75;5056110;28;20445;-66
2023/02/10 06:33:41;;;;;;;55.37;17.60;;;;;;;1.10;97.15;102782.22;5055184;28;20442;-67
2023/02/10 06:36:09;;;;;;;35.13;15.10;;;;;;;1.09;97.11;102775.22;5044482;28;20463;-66
2023/02/10 06:38:38;;;;;;;40.90;16.17;;;;;;;1.13;97.66;102784.53;5035872;28;20453;-67
2023/02/10 06:41:05;;;;;;;46.53;17.10;;;;;;;1.10;97.51;102781.41;5054835;28;20466;-67
2023/02/10 06:43:31;;;;;;;39.40;15.77;;;;;;;1.11;98.26;102777.75;5055770;28;20441;-66
2023/02/10 06:45:59;;;;;;;41.50;15.30;;;;;;;1.14;97.90;102780.00;5055420;28;20573;-66
2023/02/10 06:48:27;;;;;;;39.23;15.00;;;;;;;1.10;97.57;102776.88;5055524;28;20530;-68
2023/02/10 06:50:53;;;;;;;42.93;15.10;;;;;;;1.13;97.55;102781.03;5055354;28;20438;-66
2023/02/10 06:53:20;;;;;;;32.63;14.10;;;;;;;1.14;98.01;102785.34;5055537;28;20825;-66
2023/02/10 06:55:47;;;;;;;36.13;14.80;;;;;;;1.09;98.14;102788.56;5044919;28;20494;-67
2023/02/10 06:58:13;;;;;;;35.67;15.00;;;;;;;1.14;98.66;102794.19;5035931;28;20824;-66
2023/02/10 07:00:40;;;;;;;34.57;16.23;;;;;;;1.21;99.04;102794.28;5038792;28;20817;-68
2023/02/10 07:03:08;;;;;;;38.50;14.80;;;;;;;1.22;99.35;102802.09;5036018;28;20443;-68
2023/02/10 07:05:35;;;;;;;46.67;17.83;;;;;;;1.27;99.52;102810.38;5035626;28;20491;-68
2023/02/10 07:08:03;;;;;;;35.47;15.10;;;;;;;1.29;99.15;102802.22;5036074;28;20443;-68
2023/02/10 07:10:30;;;;;;;44.30;15.97;;;;;;;1.36;99.52;102805.78;5035766;28;20817;-66
2023/02/10 07:12:56;;;;;;;35.77;15.27;;;;;;;1.42;98.96;102806.91;5053783;28;20434;-65
2023/02/10 07:15:23;;;;;;;37.70;15.20;;;;;;;1.43;99.15;102805.88;5055321;28;20462;-66
2023/02/10 07:17:51;;;;;;;33.03;12.70;;;;;;;1.51;99.23;102819.16;5055321;28;20469;-67
2023/02/10 07:20:19;;;;;;;29.60;13.17;;;;;;;1.52;99.30;102812.78;5054286;28;20451;-65
2023/02/10 07:22:46;;;;;;;41.90;15.80;;;;;;;1.55;99.04;102800.88;5054907;28;20478;-67
2023/02/10 07:25:12;;;;;;;41.20;16.23;;;;;;;1.63;99.47;102806.13;5054836;28;20476;-66
2023/02/10 07:27:39;;;;;;;39.30;14.97;;;;;;;1.67;98.78;102810.91;5055139;28;20987;-66
2023/02/10 07:30:07;;;;;;;35.43;14.27;;;;;;;1.73;99.11;102818.19;5054814;28;20442;-66
2023/02/10 07:32:33;;;;;;;39.33;15.70;;;;;;;1.78;98.66;102831.00;5055353;28;20442;-67
2023/02/10 07:35:00;;;;;;;39.03;14.77;;;;;;;1.82;98.88;102824.28;5054584;28;21058;-66
2023/02/10 07:37:28;;;;;;;34.10;14.47;;;;;;;1.79;99.21;102829.97;5055202;28;20434;-66
2023/02/10 07:39:55;;;;;;;45.57;16.07;;;;;;;1.86;98.76;102832.72;5055283;28;20461;-65
2023/02/10 07:42:22;;;;;;;34.90;14.87;;;;;;;1.89;99.11;102835.03;5054767;28;20474;-66
2023/02/10 07:44:48;;;;;;;32.43;14.37;;;;;;;1.94;99.46;102837.94;5053614;28;20466;-66
2023/02/10 07:47:15;;;;;;;35.93;15.17;;;;;;;1.93;99.02;102830.97;5053903;28;20474;-67
2023/02/10 07:49:41;;;;;;;30.33;15.10;;;;;;;2.01;98.81;102830.84;5047928;28;20537;-62
2023/02/10 07:52:08;;;;;;;39.97;14.90;;;;;;;2.03;98.98;102826.13;5034941;28;20447;-65
2023/02/10 07:54:37;;;;;;;35.23;13.77;;;;;;;2.05;98.98;102821.44;5034897;28;20473;-65
2023/02/10 07:57:03;;;;;;;25.00;13.07;;;;;;;2.17;98.75;102827.09;5034773;28;20475;-65
2023/02/10 07:59:30;;;;;;;32.87;13.70;;;;;;;2.23;98.92;102837.88;5047893;28;20445;-66
2023/02/10 08:01:56;;;;;;;37.40;15.00;;;;;;;2.27;98.74;102833.81;5054603;28;20440;-65
2023/02/10 08:04:23;;;;;;;37.93;15.23;;;;;;;2.32;98.85;102837.75;5054035;28;20549;-65
2023/02/10 08:06:50;;;;;;;41.93;14.60;;;;;;;2.47;98.66;102838.53;5054078;28;20582;-62
2023/02/10 08:09:17;;;;;;;36.50;13.90;;;;;;;2.54;98.05;102834.06;5053290;28;20831;-65
2023/02/10 08:11:45;;;;;;;38.80;14.60;;;;;;;2.60;98.19;102841.31;5040861;28;20470;-65
2023/02/10 08:14:11;;;;;;;33.67;14.13;;;;;;;2.63;98.30;102846.28;5034661;28;20526;-65
2023/02/10 08:16:38;;;;;;;24.80;11.90;;;;;;;2.75;98.33;102847.44;5050691;28;20457;-64
2023/02/10 08:19:04;;;;;;;32.53;13.80;;;;;;;2.85;97.54;102851.63;5034537;28;20709;-65
2023/02/10 08:21:31;;;;;;;40.40;14.67;;;;;;;2.96;96.83;102853.75;5044367;28;20444;-66
2023/02/10 08:23:58;;;;;;;38.33;14.80;;;;;;;2.94;96.86;102862.00;5054045;28;20949;-66
2023/02/10 08:26:25;;;;;;;30.70;12.67;;;;;;;3.01;96.63;102857.53;5053716;28;20482;-66
2023/02/10 08:28:54;;;;;;;39.73;14.90;;;;;;;3.03;96.51;102871.53;5054211;28;20521;-65
2023/02/10 08:31:22;;;;;;;40.47;16.30;;;;;;;3.16;96.17;102865.47;5053973;28;20596;-65
2023/02/10 08:33:49;;;;;;;39.17;15.00;;;;;;;3.18;95.86;102867.94;5043943;28;20807;-64
2023/02/10 08:36:18;;;;;;;36.73;15.10;;;;;;;3.14;96.28;102870.16;5054063;28;20569;-65
2023/02/10 08:38:46;;;;;;;40.63;14.07;;;;;;;3.26;96.19;102871.28;5054116;28;20653;-65
2023/02/10 08:41:12;;;;;;;39.27;15.87;;;;;;;3.26;95.79;102875.81;5053683;28;20532;-64
2023/02/10 08:43:39;;;;;;;43.10;15.17;;;;;;;3.33;95.68;102876.72;5053987;28;20470;-65
2023/02/10 08:46:07;;;;;;;36.57;14.30;;;;;;;3.45;95.32;102879.66;5053589;28;20496;-65
2023/02/10 08:48:34;;;;;;;33.60;15.00;;;;;;;3.58;94.48;102889.63;5053489;28;20809;-65
2023/02/10 08:51:01;;;;;;;40.03;15.80;;;;;;;3.56;94.65;102884.47;5053785;28;20442;-66
2023/02/10 08:53:28;;;;;;;41.83;15.83;;;;;;;3.62;94.44;102882.84;5053769;28;20533;-64
2023/02/10 08:55:58;;;;;;;31.90;14.37;;;;;;;3.60;94.37;102885.75;5053576;28;20466;-66
2023/02/10 08:58:25;;;;;;;38.90;16.10;;;;;;;3.70;94.16;102882.69;5053257;28;20961;-63
2023/02/10 09:00:52;;;;;;;40.40;13.60;;;;;;;3.73;93.41;102888.50;5053288;28;20446;-67
2023/02/10 09:03:20;;;;;;;30.87;14.67;;;;;;;3.73;93.83;102891.19;5053295;28;20485;-67
2023/02/10 09:05:48;;;;;;;36.03;14.63;;;;;;;3.77;93.63;102880.88;5053056;28;20499;-66
2023/02/10 09:08:15;;;;;;;31.63;12.80;;;;;;;3.78;93.48;102896.75;5053216;28;20957;-66
2023/02/10 09:10:42;;;;;;;38.43;15.03;;;;;;;3.83;93.18;102898.84;5053467;28;20430;-67
2023/02/10 09:13:09;;;;;;;31.50;13.00;;;;;;;3.93;93.24;102890.44;5042530;28;20900;-66
2023/02/10 09:15:37;;;;;;;38.67;14.30;;;;;;;3.93;93.30;102903.84;5033371;28;20463;-68
2023/02/10 09:18:04;;;;;;;33.77;13.60;;;;;;;4.08;92.80;102907.22;5039824;28;21003;-66
2023/02/10 09:20:32;;;;;;;36.53;14.37;;;;;;;4.12;92.38;102903.13;5051607;28;20438;-67
2023/02/10 09:22:59;;;;;;;36.60;14.87;;;;;;;4.20;92.31;102904.78;5038348;28;20447;-66
2023/02/10 09:25:25;;;;;;;31.90;13.60;;;;;;;4.24;91.95;102906.03;5032954;28;20910;-67
2023/02/10 09:27:54;;;;;;;38.03;13.77;;;;;;;4.30;91.54;102898.00;5044685;28;20855;-67
2023/02/10 09:30:21;;;;;;;37.77;15.10;;;;;;;4.43;91.14;102910.66;5033662;28;20439;-67
2023/02/10 09:32:48;;;;;;;34.10;13.60;;;;;;;4.56;90.62;102904.50;5033265;28;20453;-67
2023/02/10 09:35:14;;;;;;;38.23;13.90;;;;;;;4.57;90.45;102906.13;5032959;28;20836;-67
2023/02/10 09:37:42;;;;;;;37.70;14.13;;;;;;;4.58;90.57;102902.41;5043542;28;20434;-67
2023/02/10 09:40:15;;;;;;;29.40;13.10;;;;;;;4.60;90.63;102900.34;5034052;28;20889;-67
2023/02/10 09:43:04;;;;;;;27.93;11.37;;;;;;;4.76;90.33;102912.56;5033997;28;20431;-67
2023/02/10 09:45:36;;;;;;;36.13;13.83;;;;;;;4.72;90.53;102914.81;5034542;28;21014;-68
2023/02/10 09:48:18;;;;;;;41.23;13.93;;;;;;;4.80;90.35;102917.31;5041140;28;20551;-69
2023/02/10 09:50:55;;;;;;;24.70;11.53;;;;;;;4.90;90.12;102924.13;5050762;28;20449;-66
2023/02/10 09:53:27;;;;;;;34.53;12.67;;;;;;;5.01;89.42;102918.16;5049339;28;20442;-67
2023/02/10 09:55:57;;;;;;;32.67;11.73;;;;;;;5.01;88.99;102924.38;5040796;28;20889;-67
2023/02/10 09:58:31;;;;;;;30.33;12.03;;;;;;;4.95;89.72;102927.84;5040719;28;20426;-67
2023/02/10 10:01:03;;;;;;;34.10;13.03;;;;;;;5.06;89.44;102938.00;5056022;28;20450;-67
2023/02/10 10:03:39;;;;;;;27.63;11.73;;;;;;;5.09;89.53;102931.41;5038507;28;20439;-66
2023/02/10 10:06:15;;;;;;;33.90;13.77;;;;;;;5.18;88.76;102935.53;5043193;28;20476;-67
2023/02/10 10:08:54;;;;;;;29.13;11.20;;;;;;;5.18;88.89;102932.84;5056932;28;20470;-67
2023/02/10 10:11:26;;;;;;;32.10;11.47;;;;;;;5.29;88.30;102937.59;5056868;28;20426;-67
2023/02/10 10:13:54;;;;;;;29.30;11.30;;;;;;;5.37;88.27;102938.41;5056595;28;20433;-68
2023/02/10 10:16:35;;;;;;;31.57;10.60;;;;;;;5.34;88.23;102945.03;5056654;28;20556;-67
2023/02/10 10:19:13;;;;;;;25.50;11.10;;;;;;;5.44;87.73;102939.22;5043955;28;20431;-68
2023/02/10 10:21:48;;;;;;;31.17;12.13;;;;;;;5.53;87.04;102932.59;5036760;28;20435;-67
2023/02/10 10:24:42;;;;;;;39.83;11.93;;;;;;;5.45;87.50;102930.16;5036309;28;20514;-66
2023/02/10 10:27:18;;;;;;;28.63;11.00;;;;;;;5.34;88.06;102931.59;5043009;28;20482;-67
2023/02/10 10:29:52;;;;;;;35.70;12.20;;;;;;;5.48;87.26;102935.09;5056293;28;20437;-67
2023/02/10 10:32:27;;;;;;;37.67;12.00;;;;;;;5.49;87.03;102940.28;5041549;28;20437;-67
2023/02/10 10:34:56;;;;;;;26.50;10.77;;;;;;;5.49;87.67;102937.59;5057258;28;21053;-64
2023/02/10 10:37:24;;;;;;;34.33;12.23;;;;;;;5.52;87.41;102944.38;5044752;28;20446;-65
2023/02/10 10:39:55;;;;;;;23.87;10.17;;;;;;;5.57;87.06;102941.91;5035951;28;20962;-66
2023/02/10 10:42:26;;;;;;;35.60;10.20;;;;;;;5.59;86.97;102937.16;5036192;28;20514;-65
2023/02/10 10:44:59;;;;;;;27.93;11.10;;;;;;;5.57;87.14;102936.50;5036242;28;20555;-63
2023/02/10 10:47:35;;;;;;;30.90;12.23;;;;;;;5.67;87.29;102928.03;5035770;28;21063;-64
2023/02/10 10:50:03;;;;;;;24.33;10.10;;;;;;;5.58;87.03;102914.00;5051547;28;20438;-65
2023/02/10 10:52:35;;;;;;;32.57;10.70;;;;;;;5.72;86.49;102921.00;5056003;28;20454;-64
2023/02/10 10:55:09;;;;;;;30.10;9.70;;;;;;;5.71;86.73;102919.34;5055326;28;20565;-65
2023/02/10 10:57:37;;;;;;;35.20;12.77;;;;;;;5.86;86.32;102921.78;5056175;28;20422;-66
2023/02/10 11:00:17;;;;;;;26.20;9.80;;;;;;;6.01;85.81;102917.00;5055872;28;20446;-65
2023/02/10 11:02:56;;;;;;;24.40;10.70;;;;;;;6.01;85.74;102922.38;5055669;28;20436;-65
2023/02/10 11:05:26;;;;;;;29.87;11.83;;;;;;;6.07;85.24;102918.03;5055500;28;20548;-65
2023/02/10 11:07:54;;;;;;;33.33;12.30;;;;;;;6.01;85.37;102911.59;5055551;28;20480;-65
2023/02/10 11:10:26;;;;;;;29.97;9.87;;;;;;;5.99;85.31;102902.13;5055847;28;20446;-65
2023/02/10 11:12:52;;;;;;;29.27;11.53;;;;;;;5.95;85.96;102904.41;5055542;28;20467;-65
2023/02/10 11:15:39;;;;;;;29.47;12.43;;;;;;;6.03;85.54;102904.16;5055246;28;20983;-64
2023/02/10 11:18:08;;;;;;;27.13;11.30;;;;;;;6.07;85.19;102905.41;5055706;28;20505;-65
2023/02/10 11:20:36;;;;;;;23.63;10.80;;;;;;;6.20;84.69;102896.44;5055129;28;20804;-65
2023/02/10 11:23:12;;;;;;;27.67;11.47;;;;;;;6.34;84.29;102889.13;5055530;28;20446;-65
2023/02/10 11:25:41;;;;;;;31.73;10.63;;;;;;;6.49;83.64;102884.25;5054906;28;20494;-63
2023/02/10 11:28:19;;;;;;;33.47;11.33;;;;;;;6.55;83.02;102879.84;5055069;28;20573;-65
2023/02/10 11:30:48;;;;;;;26.87;10.07;;;;;;;6.73;81.81;102885.34;5054987;28;20430;-65